createdAt,value
2018-08-14T00:48:39.243Z,19.27
2018-08-14T00:53:42.587Z,19.32
2018-08-14T00:58:45.923Z,19.30
2018-08-14T02:35:51.685Z,19.22
2018-08-14T02:40:55.779Z,19.16
2018-08-14T03:49:17.594Z,18.80
2018-08-14T03:54:42.474Z,18.86
2018-08-14T03:59:46.574Z,18.70
2018-08-14T04:33:36.939Z,18.97
2018-08-14T04:38:40.268Z,18.92
2018-08-14T04:43:43.594Z,18.95
2018-08-14T04:48:46.926Z,19.02
2018-08-14T04:53:50.289Z,18.98
2018-08-14T04:58:53.605Z,19.12
2018-08-14T05:03:56.946Z,19.14
2018-08-14T05:09:00.350Z,19.24
2018-08-14T05:14:03.622Z,19.23
2018-08-14T05:19:07.714Z,19.15
2018-08-14T05:24:11.054Z,19.25
2018-08-14T05:29:15.154Z,19.24
2018-08-14T05:34:18.495Z,19.26
2018-08-14T05:39:22.599Z,19.25
2018-08-14T05:44:25.933Z,19.21
2018-08-14T05:49:30.027Z,19.26
2018-08-14T05:54:33.355Z,19.23
2018-08-14T05:59:36.681Z,19.30
2018-08-14T06:04:51.910Z,19.29
2018-08-14T06:09:55.246Z,19.33
2018-08-14T06:14:58.571Z,19.12
2018-08-14T06:20:01.910Z,19.31
2018-08-14T06:25:06.061Z,19.37
2018-08-14T06:30:10.133Z,19.22
2018-08-14T07:03:59.650Z,19.78
2018-08-14T07:09:02.987Z,19.75
2018-08-14T07:14:06.331Z,19.82
2018-08-14T08:05:12.671Z,19.96
2018-08-14T08:10:16.396Z,20.07
2018-08-14T09:01:21.146Z,21.12
2018-08-14T09:06:24.477Z,20.88
2018-08-14T09:11:27.806Z,20.68
2018-08-14T10:02:31.899Z,20.92
2018-08-14T10:07:35.228Z,21.02
2018-08-14T10:12:38.562Z,20.99
2018-08-14T11:03:43.024Z,21.34
2018-08-14T11:08:46.360Z,21.34
2018-08-14T11:13:49.694Z,21.50
2018-08-14T12:04:55.310Z,22.57
2018-08-14T12:09:58.644Z,22.64
2018-08-14T12:15:02.749Z,22.62
2018-08-14T13:05:59.883Z,23.93
2018-08-14T13:11:03.220Z,24.41
2018-08-14T14:02:08.116Z,24.28
2018-08-14T14:07:12.150Z,25.16
2018-08-14T14:12:15.497Z,25.30
2018-08-14T14:46:04.183Z,25.88
2018-08-14T14:51:07.508Z,26.61
2018-08-14T14:56:11.613Z,26.33
2018-08-14T15:35:47.540Z,24.96
2018-08-14T15:40:50.905Z,24.81
2018-08-14T15:45:54.256Z,25.33
2018-08-14T15:50:58.383Z,25.29
2018-08-14T15:56:02.507Z,24.76
2018-08-14T16:01:06.667Z,24.62
2018-08-14T16:06:10.212Z,24.77
2018-08-14T16:11:13.570Z,24.97
2018-08-14T16:16:17.667Z,25.45
2018-08-14T16:21:21.005Z,25.58
2018-08-14T16:26:24.350Z,25.76
2018-08-14T16:31:27.675Z,25.19
2018-08-14T16:36:31.026Z,24.68
2018-08-14T16:41:35.166Z,24.81
2018-08-14T16:46:44.668Z,24.64
2018-08-14T16:51:48.021Z,25.09
2018-08-14T16:56:51.634Z,25.58
2018-08-14T17:01:54.990Z,25.95
2018-08-14T17:06:59.107Z,26.16
2018-08-14T17:12:02.471Z,26.63
2018-08-14T17:17:05.802Z,26.99
2018-08-14T17:22:09.162Z,26.48
2018-08-14T17:27:13.380Z,26.35
2018-08-14T17:32:17.631Z,26.66
2018-08-14T17:37:21.991Z,26.86
2018-08-14T17:42:25.351Z,26.55
2018-08-14T17:47:29.517Z,26.02
2018-08-14T17:52:33.920Z,25.76
2018-08-14T17:57:39.547Z,25.62
2018-08-14T18:02:43.081Z,25.53
2018-08-14T18:07:46.614Z,25.53
2018-08-14T18:12:50.106Z,25.19
2018-08-14T18:17:54.504Z,24.97
2018-08-14T18:22:58.013Z,24.94
2018-08-14T18:28:02.065Z,24.96
2018-08-14T18:33:05.594Z,24.51
2018-08-14T18:38:09.202Z,24.51
2018-08-14T18:43:12.745Z,24.52
2018-08-14T18:48:16.354Z,24.45
2018-08-14T18:53:20.029Z,24.26
2018-08-14T18:58:24.415Z,24.12
2018-08-14T19:03:28.067Z,23.93
2018-08-14T19:08:32.448Z,23.72
2018-08-14T19:13:36.475Z,23.66
2018-08-14T19:18:40.563Z,23.41
2018-08-14T19:23:44.165Z,23.20
2018-08-14T19:28:51.135Z,23.22
2018-08-14T19:34:02.379Z,23.23
2018-08-14T19:39:06.918Z,23.29
2018-08-14T19:44:11.492Z,23.17
2018-08-14T19:49:15.263Z,23.25
2018-08-14T19:54:20.726Z,23.25
2018-08-14T19:59:24.213Z,23.40
2018-08-14T20:04:27.577Z,23.32
2018-08-14T20:09:30.923Z,23.32
2018-08-14T20:14:34.275Z,23.18
2018-08-14T20:19:38.378Z,23.05
2018-08-14T20:24:45.359Z,23.17
2018-08-14T20:29:48.690Z,23.07
2018-08-14T20:34:52.036Z,23.02
2018-08-14T20:39:56.131Z,22.86
2018-08-14T20:44:59.473Z,22.72
2018-08-14T20:50:02.818Z,22.62
2018-08-14T20:55:06.163Z,22.62
2018-08-14T21:00:09.624Z,22.80
2018-08-14T21:05:13.831Z,22.79
2018-08-14T21:10:17.167Z,22.77
2018-08-14T21:15:21.266Z,22.81
2018-08-14T21:20:24.609Z,22.85
2018-08-14T21:25:28.748Z,22.71
2018-08-14T21:30:32.083Z,22.67
2018-08-14T21:35:35.411Z,22.71
2018-08-14T21:40:38.749Z,22.61
2018-08-14T21:46:02.068Z,22.53
2018-08-14T21:51:05.394Z,22.40
2018-08-14T21:56:17.726Z,22.20
2018-08-14T22:01:21.052Z,22.19
2018-08-14T22:06:50.292Z,22.01
2018-08-14T22:11:53.624Z,22.18
2018-08-14T22:16:57.731Z,22.13
2018-08-14T22:22:01.065Z,22.15
2018-08-14T22:27:05.172Z,22.21
2018-08-14T22:32:08.493Z,22.15
2018-08-14T22:37:11.831Z,22.19
2018-08-14T22:42:15.918Z,22.12
2018-08-14T22:47:19.258Z,22.09
2018-08-14T22:52:22.604Z,22.07
2018-08-14T22:57:25.940Z,22.01
2018-08-14T23:02:29.271Z,21.93
2018-08-14T23:07:32.602Z,21.81
2018-08-14T23:12:35.938Z,21.73
